Time;durP1;ratioP1;P1;durP2;ratioP2;P2;SDS_P1;SDS_P2;PMS_P1;PMS_P2;Temp;Humidity;BMP_temperature;BMP_pressure;BME280_temperature;BME280_humidity;BME280_pressure;Samples;Min_cycle;Max_cycle;Signal;HPM_P1;HPM_P2
2022/05/24 00:01:42;;;;;;;20.40;14.40;;;13.20;99.90;;;;;;4958095;28;20051;-81
2022/05/24 00:04:08;;;;;;;22.38;14.77;;;13.20;99.90;;;;;;4956192;28;20050;-80
2022/05/24 00:06:34;;;;;;;28.63;13.25;;;13.20;99.90;;;;;;4975241;28;20126;-80
2022/05/24 00:09:00;;;;;;;20.92;13.05;;;13.20;99.90;;;;;;4973955;28;20038;-82
2022/05/24 00:11:25;;;;;;;19.85;12.88;;;13.20;99.90;;;;;;4957901;28;20543;-81
2022/05/24 00:13:51;;;;;;;18.63;12.18;;;13.20;99.90;;;;;;4960819;28;20050;-80
2022/05/24 00:16:18;;;;;;;21.90;12.10;;;13.20;99.90;;;;;;4988833;28;20457;-81
2022/05/24 00:18:43;;;;;;;15.45;10.63;;;13.20;99.90;;;;;;4962337;28;20070;-84
2022/05/24 00:21:09;;;;;;;16.33;9.63;;;13.10;99.90;;;;;;4974458;28;20507;-85
2022/05/24 00:23:35;;;;;;;13.70;8.93;;;13.10;99.90;;;;;;4957081;28;20499;-82
2022/05/24 00:26:05;;;;;;;12.98;7.22;;;13.10;99.90;;;;;;4961844;28;20550;-81
2022/05/24 00:28:33;;;;;;;12.90;7.43;;;13.10;99.90;;;;;;4976246;28;20373;-83
2022/05/24 00:31:00;;;;;;;11.73;7.15;;;13.00;99.90;;;;;;4973430;28;20054;-81
2022/05/24 00:33:27;;;;;;;13.98;6.10;;;13.00;99.90;;;;;;4972783;28;20038;-81
2022/05/24 00:35:54;;;;;;;8.88;5.75;;;13.00;99.90;;;;;;4978549;28;20086;-84
2022/05/24 00:38:27;;;;;;;9.13;4.70;;;13.00;99.90;;;;;;4981799;28;20039;-86
2022/05/24 00:41:06;;;;;;;12.73;5.82;;;13.00;99.90;;;;;;4942053;28;20095;-81
2022/05/24 00:43:35;;;;;;;9.45;4.82;;;13.00;99.90;;;;;;4973337;28;20059;-82
2022/05/24 00:46:05;;;;;;;11.68;4.85;;;13.00;99.90;;;;;;4956639;28;20047;-83
2022/05/24 00:48:38;;;;;;;9.77;4.60;;;13.00;99.90;;;;;;4942136;28;20196;-92
2022/05/24 00:51:08;;;;;;;13.13;4.93;;;13.00;99.90;;;;;;4962005;28;20050;-82
2022/05/24 00:53:42;;;;;;;8.82;5.00;;;13.00;99.90;;;;;;4978882;28;20099;-81
2022/05/24 00:56:13;;;;;;;11.90;5.30;;;13.00;99.90;;;;;;4981002;28;20058;-81
2022/05/24 00:58:43;;;;;;;8.30;4.95;;;13.00;99.90;;;;;;4980925;28;20074;-81
2022/05/24 01:01:18;;;;;;;9.45;6.32;;;13.00;99.90;;;;;;4982941;28;20050;-83
2022/05/24 01:03:43;;;;;;;12.18;6.65;;;13.00;99.90;;;;;;4964940;28;20059;-84
2022/05/24 01:06:09;;;;;;;11.75;6.45;;;13.00;99.90;;;;;;4984164;28;20077;-81
2022/05/24 01:08:35;;;;;;;10.48;6.10;;;13.00;99.90;;;;;;4979377;28;20089;-83
2022/05/24 01:11:03;;;;;;;12.80;6.82;;;13.00;99.90;;;;;;4944419;28;20053;-82
2022/05/24 01:13:30;;;;;;;11.82;6.07;;;13.00;99.90;;;;;;4981100;28;20456;-81
2022/05/24 01:15:57;;;;;;;11.32;6.82;;;13.00;99.90;;;;;;4959315;28;20435;-82
2022/05/24 01:18:24;;;;;;;11.48;6.95;;;13.00;99.90;;;;;;4976349;28;20093;-80
2022/05/24 01:21:02;;;;;;;10.50;6.55;;;13.00;99.90;;;;;;4958945;28;20523;-86
2022/05/24 01:23:39;;;;;;;9.95;5.65;;;13.00;99.90;;;;;;4979753;28;20451;-82
2022/05/24 01:26:14;;;;;;;12.05;5.95;;;12.90;99.90;;;;;;4975841;28;20055;-82
2022/05/24 01:28:49;;;;;;;;;;;12.90;99.90;;;;;;4978013;28;20054;-80
2022/05/24 01:31:15;;;;;;;11.52;5.50;;;12.90;99.90;;;;;;4977476;28;19974;-81
2022/05/24 01:36:31;;;;;;;10.07;5.77;;;12.90;99.90;;;;;;4977450;28;20065;-82
2022/05/24 01:39:03;;;;;;;12.45;6.18;;;12.80;99.90;;;;;;4975180;28;20043;-81
2022/05/24 01:41:46;;;;;;;12.75;6.07;;;12.90;99.90;;;;;;4957997;28;20046;-82
2022/05/24 01:44:15;;;;;;;11.50;5.72;;;12.80;99.90;;;;;;4978752;28;20106;-84
2022/05/24 01:46:44;;;;;;;8.63;5.90;;;12.90;99.90;;;;;;4976335;28;20122;-80
2022/05/24 01:49:25;;;;;;;11.10;5.90;;;12.80;99.90;;;;;;4981003;28;20359;-89
2022/05/24 01:52:04;;;;;;;9.32;6.35;;;12.80;99.90;;;;;;4978999;28;20138;-92
2022/05/24 01:54:34;;;;;;;13.90;6.32;;;12.90;99.90;;;;;;4976720;28;20518;-94
2022/05/24 01:57:13;;;;;;;12.18;6.78;;;12.80;99.90;;;;;;4990818;28;20062;-90
2022/05/24 01:59:40;;;;;;;12.18;6.95;;;12.80;99.90;;;;;;4981907;28;20074;-82
2022/05/24 02:02:06;;;;;;;11.05;6.97;;;12.80;99.90;;;;;;4980896;28;20109;-81
2022/05/24 02:04:33;;;;;;;16.90;8.27;;;12.80;99.90;;;;;;4973903;28;20054;-82
2022/05/24 02:07:07;;;;;;;15.48;9.07;;;12.90;99.90;;;;;;4959238;28;20043;-85
2022/05/24 02:09:35;;;;;;;18.40;8.75;;;12.90;99.90;;;;;;4976167;28;20117;-85
2022/05/24 02:12:12;;;;;;;13.65;9.23;;;12.90;99.90;;;;;;4976654;28;20456;-87
2022/05/24 02:14:43;;;;;;;15.40;8.90;;;12.90;99.90;;;;;;4978760;28;20105;-82
2022/05/24 02:17:16;;;;;;;14.32;8.82;;;12.90;99.90;;;;;;4980157;28;20047;-84
2022/05/24 02:19:48;;;;;;;15.43;9.30;;;12.90;99.90;;;;;;4957753;28;20070;-81
2022/05/24 02:22:20;;;;;;;14.82;9.18;;;12.90;99.90;;;;;;4975967;28;20134;-84
2022/05/24 02:25:03;;;;;;;15.65;10.43;;;13.00;99.90;;;;;;4975977;28;20526;-82
2022/05/24 02:27:29;;;;;;;17.00;10.10;;;13.00;99.90;;;;;;4975555;28;20093;-89
2022/05/24 02:29:57;;;;;;;16.10;10.05;;;13.00;99.90;;;;;;4976185;28;20069;-82
2022/05/24 02:32:23;;;;;;;14.48;10.70;;;13.00;99.90;;;;;;4962371;28;20054;-83
2022/05/24 02:34:49;;;;;;;16.15;11.68;;;13.00;99.90;;;;;;4958530;28;20051;-83
2022/05/24 02:37:15;;;;;;;18.77;12.75;;;13.00;99.90;;;;;;4958598;28;20059;-83
2022/05/24 02:42:25;;;;;;;19.02;11.55;;;13.00;99.90;;;;;;4982411;28;20050;-82
2022/05/24 02:44:51;;;;;;;20.63;12.63;;;13.10;99.90;;;;;;4984905;28;20571;-89
2022/05/24 02:47:17;;;;;;;22.23;13.25;;;13.00;99.90;;;;;;4979737;28;20055;-81
2022/05/24 02:49:43;;;;;;;22.77;14.55;;;13.00;99.90;;;;;;4977875;28;20105;-81
2022/05/24 02:52:09;;;;;;;21.08;13.57;;;13.00;99.90;;;;;;4975441;28;20407;-81
2022/05/24 02:54:35;;;;;;;25.58;15.20;;;13.00;99.90;;;;;;4956972;28;20430;-81
2022/05/24 02:57:04;;;;;;;25.45;15.13;;;13.00;99.90;;;;;;4957516;28;20047;-81
2022/05/24 02:59:31;;;;;;;28.70;16.55;;;13.00;99.90;;;;;;4960450;28;20063;-87
2022/05/24 03:01:56;;;;;;;30.10;17.63;;;13.00;99.90;;;;;;4957626;28;20055;-91
2022/05/24 03:04:22;;;;;;;27.33;16.38;;;13.00;99.90;;;;;;4959133;28;20054;-81
2022/05/24 03:09:35;;;;;;;36.37;20.57;;;13.00;99.90;;;;;;4958559;28;20078;-82
2022/05/24 03:14:52;;;;;;;31.77;18.15;;;13.00;99.90;;;;;;4973711;28;20054;-84
2022/05/24 03:17:18;;;;;;;30.13;17.92;;;13.00;99.90;;;;;;4975873;28;20392;-83
2022/05/24 03:19:44;;;;;;;29.35;18.98;;;13.10;99.90;;;;;;4963543;28;20065;-87
2022/05/24 03:22:10;;;;;;;35.67;21.42;;;13.10;99.90;;;;;;4978985;28;20411;-85
2022/05/24 03:24:36;;;;;;;37.78;21.52;;;13.10;99.90;;;;;;4966976;28;20061;-81
2022/05/24 03:27:07;;;;;;;36.67;22.20;;;13.10;99.90;;;;;;4986747;28;20055;-82
2022/05/24 03:29:34;;;;;;;39.67;22.27;;;13.20;99.90;;;;;;4977857;28;20059;-82
2022/05/24 03:32:00;;;;;;;42.72;24.25;;;13.20;99.90;;;;;;4974639;28;20057;-85
2022/05/24 03:34:27;;;;;;;40.58;24.63;;;13.20;99.90;;;;;;4959856;28;20141;-83
2022/05/24 03:36:53;;;;;;;41.80;25.55;;;13.20;99.90;;;;;;4974460;28;20062;-81
2022/05/24 03:39:19;;;;;;;45.92;28.08;;;13.30;99.90;;;;;;4975347;28;20113;-82
2022/05/24 03:41:46;;;;;;;45.83;27.10;;;13.30;99.90;;;;;;4957589;28;20050;-83
2022/05/24 03:44:12;;;;;;;48.45;28.27;;;13.20;99.90;;;;;;4956710;28;20054;-84
2022/05/24 03:46:38;;;;;;;48.22;27.10;;;13.30;99.90;;;;;;4973806;28;20050;-84
2022/05/24 03:49:05;;;;;;;50.38;29.25;;;13.30;99.90;;;;;;4956044;28;20137;-84
2022/05/24 03:51:31;;;;;;;45.78;27.02;;;13.20;99.90;;;;;;4976332;28;20058;-82
2022/05/24 03:53:57;;;;;;;53.13;28.55;;;13.30;99.90;;;;;;4961195;28;20043;-87
2022/05/24 03:56:24;;;;;;;46.72;28.27;;;13.30;99.90;;;;;;4959976;28;20059;-82
2022/05/24 03:58:50;;;;;;;57.83;30.38;;;13.30;99.90;;;;;;4956473;28;20051;-81
2022/05/24 04:01:16;;;;;;;47.50;28.23;;;13.30;99.90;;;;;;4974538;28;20105;-82
2022/05/24 04:03:42;;;;;;;41.97;26.08;;;13.30;99.90;;;;;;4977415;28;20050;-83
2022/05/24 04:06:07;;;;;;;43.15;26.42;;;13.30;99.90;;;;;;4979483;28;20055;-82
2022/05/24 04:08:33;;;;;;;45.25;25.85;;;13.40;99.90;;;;;;4959569;28;20538;-81
2022/05/24 04:11:10;;;;;;;47.25;29.77;;;13.40;99.90;;;;;;4975485;28;20055;-82
2022/05/24 04:13:37;;;;;;;48.35;27.73;;;13.40;99.90;;;;;;4983189;28;20404;-82
2022/05/24 04:16:05;;;;;;;49.38;29.27;;;13.40;99.90;;;;;;4980829;28;20058;-85
2022/05/24 04:18:31;;;;;;;39.03;23.85;;;13.40;99.90;;;;;;4981075;28;20058;-84
2022/05/24 04:20:58;;;;;;;37.47;25.17;;;13.40;99.90;;;;;;4968320;28;20047;-84
2022/05/24 04:23:25;;;;;;;36.33;24.30;;;13.40;99.90;;;;;;4964433;28;20054;-82
2022/05/24 04:25:53;;;;;;;43.72;25.33;;;13.40;99.90;;;;;;4974327;28;20058;-82
2022/05/24 04:28:20;;;;;;;39.55;23.83;;;13.40;99.90;;;;;;4972950;28;20134;-82
2022/05/24 04:30:47;;;;;;;36.22;21.38;;;13.40;99.90;;;;;;4976085;28;20652;-82
2022/05/24 04:33:15;;;;;;;27.98;17.13;;;13.40;99.90;;;;;;4971166;28;20499;-82
2022/05/24 04:35:41;;;;;;;26.92;16.10;;;13.40;99.90;;;;;;4955313;28;20406;-85
2022/05/24 04:38:07;;;;;;;25.20;15.02;;;13.40;99.90;;;;;;4972407;28;20102;-84
2022/05/24 04:43:28;;;;;;;27.67;16.08;;;13.40;99.90;;;;;;4936662;28;20104;-82
2022/05/24 04:45:55;;;;;;;29.23;15.32;;;13.40;99.90;;;;;;4974380;28;20051;-84
2022/05/24 04:48:23;;;;;;;26.02;14.30;;;13.30;99.90;;;;;;4972533;28;20491;-88
2022/05/24 04:50:53;;;;;;;28.83;16.92;;;13.30;99.90;;;;;;4954765;28;20054;-82
2022/05/24 04:53:20;;;;;;;29.15;15.82;;;13.30;99.90;;;;;;4972627;28;20110;-88
2022/05/24 04:55:48;;;;;;;21.95;13.38;;;13.30;99.90;;;;;;4974342;28;20054;-88
2022/05/24 04:58:15;;;;;;;21.77;13.93;;;13.30;99.90;;;;;;4972076;28;20055;-82
2022/05/24 05:00:42;;;;;;;21.73;13.32;;;13.30;99.90;;;;;;4973891;28;20054;-84
2022/05/24 05:03:13;;;;;;;22.40;13.23;;;13.40;99.90;;;;;;4971772;28;20546;-86
2022/05/24 05:05:40;;;;;;;22.27;12.52;;;13.30;99.90;;;;;;4955266;28;20559;-93
2022/05/24 05:08:07;;;;;;;22.38;12.20;;;13.40;99.90;;;;;;4980053;28;20388;-84
2022/05/24 05:10:34;;;;;;;21.70;12.55;;;13.40;99.90;;;;;;4976197;28;20106;-85
2022/05/24 05:13:02;;;;;;;20.30;11.60;;;13.40;99.90;;;;;;4971986;28;20094;-82
2022/05/24 05:15:28;;;;;;;21.58;11.77;;;13.40;99.90;;;;;;4971344;28;20061;-82
2022/05/24 05:18:10;;;;;;;33.10;12.63;;;13.40;99.90;;;;;;4974240;28;20047;-85
2022/05/24 05:20:39;;;;;;;26.58;12.23;;;13.40;99.90;;;;;;4960281;28;20059;-82
2022/05/24 05:23:14;;;;;;;15.68;9.32;;;13.50;99.90;;;;;;4973770;28;20054;-83
2022/05/24 05:25:41;;;;;;;20.17;10.98;;;13.50;99.90;;;;;;4971954;28;20050;-81
2022/05/24 05:28:07;;;;;;;16.27;9.05;;;13.50;99.90;;;;;;4959624;28;20079;-82
2022/05/24 05:33:18;;;;;;;14.65;7.88;;;13.60;99.90;;;;;;4959138;28;20426;-81
2022/05/24 05:35:45;;;;;;;15.82;8.00;;;13.60;99.90;;;;;;4943961;28;20051;-83
2022/05/24 05:38:12;;;;;;;20.23;9.75;;;13.70;99.90;;;;;;4955660;28;20043;-82
2022/05/24 05:40:38;;;;;;;18.08;9.30;;;13.70;99.90;;;;;;4975521;28;20051;-82
2022/05/24 05:43:04;;;;;;;19.92;9.18;;;13.70;99.90;;;;;;4977635;28;20092;-82
2022/05/24 05:45:30;;;;;;;18.63;9.45;;;13.70;99.90;;;;;;4976487;28;20093;-81
2022/05/24 05:47:56;;;;;;;16.98;9.73;;;13.70;99.90;;;;;;4975874;28;20054;-83
2022/05/24 05:50:22;;;;;;;12.65;8.25;;;13.70;99.90;;;;;;4958818;28;20057;-82
2022/05/24 05:52:50;;;;;;;16.15;8.00;;;13.70;99.90;;;;;;4959246;28;20484;-83
2022/05/24 05:55:16;;;;;;;20.50;7.80;;;13.70;99.90;;;;;;4968881;28;20058;-84
2022/05/24 05:57:42;;;;;;;16.75;8.75;;;13.70;99.90;;;;;;4982596;28;20075;-86
2022/05/24 06:00:09;;;;;;;16.63;8.38;;;13.70;99.90;;;;;;4982160;28;20110;-80
2022/05/24 06:02:35;;;;;;;16.38;7.68;;;13.80;99.90;;;;;;4970294;28;20051;-91
2022/05/24 06:05:02;;;;;;;17.50;8.63;;;13.80;99.90;;;;;;4977186;28;20055;-83
2022/05/24 06:07:28;;;;;;;16.08;7.75;;;13.90;99.90;;;;;;4942000;28;20113;-81
2022/05/24 06:09:54;;;;;;;18.95;9.38;;;13.90;99.90;;;;;;4957778;28;20047;-85
2022/05/24 06:12:19;;;;;;;16.40;8.98;;;13.90;99.90;;;;;;4959982;28;20057;-82
2022/05/24 06:14:46;;;;;;;15.95;8.45;;;13.90;99.90;;;;;;4960431;28;20059;-81
2022/05/24 06:17:12;;;;;;;16.73;8.77;;;13.90;99.90;;;;;;4961168;28;20054;-83
2022/05/24 06:19:38;;;;;;;21.95;10.65;;;13.80;99.90;;;;;;4977597;28;20403;-82
2022/05/24 06:22:04;;;;;;;14.38;8.38;;;13.90;99.90;;;;;;4985508;28;20058;-86
2022/05/24 06:24:30;;;;;;;19.58;11.77;;;14.00;99.90;;;;;;4933737;28;20059;-85
2022/05/24 06:26:56;;;;;;;16.52;9.77;;;14.00;99.90;;;;;;4976460;28;20055;-82
2022/05/24 06:29:23;;;;;;;22.65;10.07;;;14.00;99.90;;;;;;4977765;28;20193;-90
2022/05/24 06:31:49;;;;;;;18.55;10.82;;;14.10;99.90;;;;;;4963299;28;20113;-82
2022/05/24 06:34:15;;;;;;;18.58;10.50;;;14.20;99.90;;;;;;4981362;28;20503;-86
2022/05/24 06:36:43;;;;;;;21.58;11.07;;;14.10;99.90;;;;;;4980069;28;20082;-88
2022/05/24 06:39:08;;;;;;;23.85;12.93;;;14.20;99.90;;;;;;4979440;28;20129;-82
2022/05/24 06:41:34;;;;;;;19.48;11.80;;;14.20;99.90;;;;;;4977464;28;20081;-84
2022/05/24 06:44:00;;;;;;;19.42;12.10;;;14.20;99.90;;;;;;4982289;28;20336;-92
2022/05/24 06:46:26;;;;;;;21.95;12.38;;;14.30;99.90;;;;;;4982536;28;20125;-83
2022/05/24 06:48:52;;;;;;;23.95;13.13;;;14.30;99.90;;;;;;4981051;28;20055;-83
2022/05/24 06:51:20;;;;;;;21.08;13.45;;;14.40;99.90;;;;;;4976522;28;20408;-88
2022/05/24 06:53:48;;;;;;;24.33;12.63;;;14.40;99.90;;;;;;4958409;28;20055;-83
2022/05/24 06:56:14;;;;;;;22.50;13.77;;;14.50;99.90;;;;;;4974772;28;20055;-83
2022/05/24 06:58:40;;;;;;;21.30;12.63;;;14.50;99.90;;;;;;4974708;28;20053;-84
2022/05/24 07:03:54;;;;;;;33.92;13.13;;;14.40;99.90;;;;;;4978131;28;20062;-82
2022/05/24 07:06:20;;;;;;;21.38;12.65;;;14.30;99.90;;;;;;4981159;28;20050;-84
2022/05/24 07:08:47;;;;;;;24.17;12.23;;;14.30;99.90;;;;;;4984802;28;20133;-82
2022/05/24 07:11:16;;;;;;;25.92;12.75;;;14.30;99.90;;;;;;4967991;28;20050;-84
2022/05/24 07:13:44;;;;;;;17.48;10.48;;;14.30;99.90;;;;;;4984262;28;20082;-86
2022/05/24 07:16:10;;;;;;;14.75;9.65;;;14.40;99.90;;;;;;4983123;28;20046;-84
2022/05/24 07:18:37;;;;;;;16.77;8.55;;;14.40;99.90;;;;;;4975802;28;20090;-85
2022/05/24 07:21:05;;;;;;;10.73;6.95;;;14.50;99.90;;;;;;4958255;28;20113;-81
2022/05/24 07:23:37;;;;;;;13.02;5.63;;;14.50;99.90;;;;;;4976799;28;20121;-83
2022/05/24 07:26:13;;;;;;;15.02;5.50;;;14.60;99.90;;;;;;4962094;28;20050;-82
2022/05/24 07:28:39;;;;;;;10.88;4.93;;;14.60;99.90;;;;;;4957836;28;20050;-82
2022/05/24 07:31:05;;;;;;;14.77;5.43;;;14.60;99.90;;;;;;4976277;28;20154;-85
2022/05/24 07:33:32;;;;;;;10.80;4.20;;;14.50;99.90;;;;;;4957064;28;20125;-83
2022/05/24 07:35:58;;;;;;;15.55;4.68;;;14.50;99.90;;;;;;4975633;28;20055;-82
2022/05/24 07:38:24;;;;;;;13.98;5.38;;;14.50;99.90;;;;;;4947398;28;20066;-83
2022/05/24 07:46:18;;;;;;;14.27;4.55;;;14.40;99.90;;;;;;4977200;28;20065;-87
2022/05/24 07:48:44;;;;;;;8.55;5.32;;;14.40;99.90;;;;;;4975443;28;20043;-84
2022/05/24 07:51:10;;;;;;;15.60;4.88;;;14.30;99.90;;;;;;4957130;28;20439;-82
2022/05/24 07:53:36;;;;;;;11.23;5.00;;;14.40;99.90;;;;;;4957330;28;20062;-81
2022/05/24 07:56:03;;;;;;;13.80;5.13;;;14.60;99.90;;;;;;4957199;28;20050;-84
2022/05/24 07:58:30;;;;;;;14.65;4.82;;;14.70;99.90;;;;;;4974273;28;20514;-83
2022/05/24 08:00:57;;;;;;;14.00;4.88;;;14.70;99.90;;;;;;4973163;28;20400;-82
2022/05/24 08:03:23;;;;;;;10.10;4.43;;;14.80;99.90;;;;;;4957279;28;20050;-82
2022/05/24 08:05:49;;;;;;;11.80;5.05;;;14.90;99.90;;;;;;4976418;28;20515;-89
2022/05/24 08:08:17;;;;;;;13.20;4.78;;;15.00;99.90;;;;;;4959208;28;20518;-85
2022/05/24 08:10:43;;;;;;;16.63;5.80;;;15.00;99.90;;;;;;4986000;28;20059;-83
2022/05/24 08:13:12;;;;;;;12.70;4.78;;;15.00;99.90;;;;;;4982104;28;20046;-81
2022/05/24 08:15:39;;;;;;;12.20;5.63;;;15.00;99.90;;;;;;4958769;28;20197;-86
2022/05/24 08:18:05;;;;;;;10.43;5.22;;;15.00;99.90;;;;;;4965451;28;20046;-83
2022/05/24 08:20:33;;;;;;;15.40;6.03;;;15.00;99.90;;;;;;4980341;28;20046;-81
2022/05/24 08:22:59;;;;;;;14.82;5.63;;;15.00;99.90;;;;;;4968889;28;20062;-87
2022/05/24 08:25:30;;;;;;;9.07;4.38;;;15.00;99.90;;;;;;4962659;28;20117;-87
2022/05/24 08:27:58;;;;;;;10.57;4.40;;;15.00;99.90;;;;;;4974812;28;20072;-84
2022/05/24 08:30:25;;;;;;;9.52;4.90;;;15.10;99.90;;;;;;4976030;28;20058;-84
2022/05/24 08:32:52;;;;;;;11.93;4.18;;;15.10;99.90;;;;;;4974811;28;20080;-84
2022/05/24 08:35:19;;;;;;;9.10;4.20;;;15.20;99.90;;;;;;4975519;28;20053;-85
2022/05/24 08:37:45;;;;;;;10.80;4.03;;;15.20;99.90;;;;;;4956824;28;20062;-85
2022/05/24 08:40:16;;;;;;;9.70;4.93;;;15.10;99.90;;;;;;4956350;28;20050;-82
2022/05/24 08:43:14;;;;;;;10.88;4.53;;;15.00;99.90;;;;;;4976131;28;20150;-83
2022/05/24 08:49:04;;;;;;;12.73;5.40;;;15.00;99.90;;;;;;4983251;28;20046;-84
2022/05/24 08:51:43;;;;;;;10.07;4.70;;;15.10;99.90;;;;;;4990058;28;20047;-88
2022/05/24 08:54:19;;;;;;;6.28;3.90;;;15.10;99.90;;;;;;4989772;28;20054;-85
2022/05/24 08:56:51;;;;;;;7.95;3.67;;;15.20;99.90;;;;;;4975560;28;20145;-94
2022/05/24 08:59:28;;;;;;;8.68;3.80;;;15.30;99.90;;;;;;4988444;28;20518;-86
2022/05/24 09:01:54;;;;;;;11.05;3.67;;;15.30;99.90;;;;;;4950584;28;20047;-84
2022/05/24 09:04:20;;;;;;;11.35;4.68;;;15.30;99.90;;;;;;4960090;28;20066;-84
2022/05/24 09:06:59;;;;;;;13.88;4.72;;;15.30;99.90;;;;;;4948038;28;20094;-84
2022/05/24 09:09:47;;;;;;;11.10;5.05;;;15.20;99.90;;;;;;4970918;28;20054;-92
2022/05/24 09:12:19;;;;;;;18.15;6.15;;;15.00;99.90;;;;;;4980155;28;20051;-88
2022/05/24 09:14:53;;;;;;;20.80;8.45;;;14.80;99.90;;;;;;4975299;28;20652;-79
2022/05/24 09:17:56;;;;;;;14.93;6.63;;;14.10;99.90;;;;;;4957634;28;20565;-80
2022/05/24 09:20:25;;;;;;;14.25;6.53;;;13.70;99.90;;;;;;4960073;28;20523;-80
2022/05/24 09:23:13;;;;;;;15.73;6.72;;;13.50;99.90;;;;;;4975542;28;20133;-78
2022/05/24 09:26:04;;;;;;;13.00;6.78;;;13.40;99.90;;;;;;4975479;28;20082;-80
2022/05/24 09:28:52;;;;;;;13.48;7.85;;;13.30;99.90;;;;;;4942244;28;20051;-81
2022/05/24 09:31:36;;;;;;;12.50;8.23;;;13.30;99.90;;;;;;4975012;28;20449;-81
2022/05/24 09:34:21;;;;;;;16.20;8.15;;;13.50;99.90;;;;;;4958045;28;20058;-80
2022/05/24 09:37:03;;;;;;;11.90;8.20;;;13.60;99.90;;;;;;4943001;28;20055;-80
2022/05/24 09:39:41;;;;;;;18.00;8.80;;;13.90;99.90;;;;;;4958102;28;20050;-81
2022/05/24 09:42:13;;;;;;;17.00;9.90;;;14.00;99.90;;;;;;4958145;28;20061;-80
2022/05/24 09:45:00;;;;;;;10.43;6.90;;;14.10;99.90;;;;;;4958517;28;20061;-80
2022/05/24 09:47:31;;;;;;;13.77;7.28;;;14.30;99.90;;;;;;4959996;28;20837;-80
2022/05/24 09:50:18;;;;;;;11.43;6.00;;;14.50;99.90;;;;;;4977178;28;20093;-80
2022/05/24 09:53:15;;;;;;;8.63;6.05;;;14.60;99.90;;;;;;4957247;28;20058;-82
2022/05/24 09:56:01;;;;;;;10.52;7.05;;;14.50;99.90;;;;;;4973359;28;20529;-82
2022/05/24 09:58:50;;;;;;;7.05;5.03;;;14.50;99.90;;;;;;4977676;28;20422;-81
2022/05/24 10:01:35;;;;;;;6.20;3.13;;;14.60;99.90;;;;;;4961864;28;20081;-80
2022/05/24 10:04:19;;;;;;;7.28;4.45;;;14.70;99.90;;;;;;4978084;28;20059;-82
2022/05/24 10:07:23;;;;;;;7.22;4.68;;;14.90;99.90;;;;;;4975721;28;20058;-81
2022/05/24 10:10:24;;;;;;;13.10;6.20;;;15.20;99.90;;;;;;4946563;28;20101;-82
2022/05/24 10:12:56;;;;;;;6.03;4.03;;;15.70;99.90;;;;;;4918295;28;20443;-87
2022/05/24 10:15:27;;;;;;;9.85;4.32;;;15.80;99.90;;;;;;4960627;28;20113;-82
2022/05/24 10:18:05;;;;;;;7.75;3.47;;;16.10;99.90;;;;;;4959646;28;20415;-87
2022/05/24 10:20:52;;;;;;;6.70;3.95;;;16.40;99.90;;;;;;4976219;28;20141;-88
2022/05/24 10:23:38;;;;;;;5.80;3.45;;;16.60;99.90;;;;;;4957355;28;20543;-82
2022/05/24 10:26:42;;;;;;;8.32;3.80;;;16.70;99.90;;;;;;4973495;28;20077;-80
2022/05/24 10:29:37;;;;;;;5.68;3.28;;;16.70;99.90;;;;;;4941679;28;20055;-82
2022/05/24 10:38:19;;;;;;;9.18;3.33;;;14.90;99.90;;;;;;4974835;28;20051;-79
2022/05/24 10:41:07;;;;;;;4.60;1.55;;;14.30;99.90;;;;;;4973765;28;20404;-80
2022/05/24 10:43:55;;;;;;;5.15;1.95;;;13.80;99.90;;;;;;4956688;28;20090;-79
2022/05/24 10:46:48;;;;;;;6.07;2.80;;;13.70;99.90;;;;;;4974116;28;20078;-81
2022/05/24 10:49:39;;;;;;;10.07;3.90;;;13.70;99.90;;;;;;4974090;28;20101;-79
2022/05/24 10:52:17;;;;;;;7.47;4.35;;;14.00;99.90;;;;;;4974854;28;20758;-80
2022/05/24 10:54:55;;;;;;;8.13;5.32;;;14.40;99.90;;;;;;4976275;28;20182;-79
2022/05/24 10:57:42;;;;;;;8.32;4.53;;;14.50;99.90;;;;;;4958529;28;20050;-82
2022/05/24 11:00:23;;;;;;;17.38;6.75;;;14.80;99.90;;;;;;4959289;28;20060;-80
2022/05/24 11:03:07;;;;;;;10.98;6.43;;;15.10;99.90;;;;;;4958419;28;20063;-80
2022/05/24 11:05:41;;;;;;;10.77;7.00;;;15.30;99.90;;;;;;4957642;28;20054;-84
2022/05/24 11:08:47;;;;;;;9.82;6.75;;;15.10;99.90;;;;;;4956657;28;20098;-83
2022/05/24 11:11:50;;;;;;;9.05;4.40;;;14.80;99.90;;;;;;4943964;28;20078;-82
2022/05/24 11:14:45;;;;;;;11.18;4.53;;;14.50;99.90;;;;;;4973452;28;20105;-80
2022/05/24 11:17:12;;;;;;;3.60;1.23;;;14.50;99.90;;;;;;4956277;28;20094;-81
2022/05/24 11:19:45;;;;;;;3.17;0.88;;;14.40;99.90;;;;;;4973911;28;20085;-80
2022/05/24 11:22:33;;;;;;;3.70;0.80;;;14.70;99.90;;;;;;4974843;28;20097;-88
2022/05/24 11:25:19;;;;;;;2.47;1.00;;;15.00;99.90;;;;;;4975027;28;20094;-80
2022/05/24 11:27:50;;;;;;;8.35;1.85;;;15.30;99.90;;;;;;4955910;28;20451;-81
2022/05/24 11:30:29;;;;;;;3.75;1.00;;;15.30;99.90;;;;;;4955813;28;20145;-81
2022/05/24 11:33:07;;;;;;;5.85;1.30;;;15.30;99.90;;;;;;4974133;28;20074;-81
2022/05/24 11:35:45;;;;;;;4.70;1.20;;;15.30;99.90;;;;;;4972934;28;20062;-81
2022/05/24 11:38:22;;;;;;;4.95;1.30;;;15.00;99.90;;;;;;4960926;28;20047;-80
2022/05/24 11:40:54;;;;;;;6.72;1.73;;;14.90;99.90;;;;;;4975203;28;20054;-82
2022/05/24 11:43:35;;;;;;;6.80;1.63;;;14.90;99.90;;;;;;4956119;28;20047;-83
2022/05/24 11:46:02;;;;;;;5.63;1.50;;;14.80;99.90;;;;;;4973780;28;20061;-84
2022/05/24 11:48:39;;;;;;;8.30;1.40;;;14.60;99.90;;;;;;4974933;28;20062;-81
2022/05/24 11:51:39;;;;;;;8.02;1.52;;;14.50;99.90;;;;;;4958007;28;20051;-85
2022/05/24 11:54:25;;;;;;;4.03;1.02;;;14.30;99.90;;;;;;4975200;28;20546;-84
2022/05/24 11:56:55;;;;;;;4.88;1.52;;;14.10;99.90;;;;;;4910536;28;20050;-86
2022/05/24 11:59:48;;;;;;;3.80;0.85;;;14.10;99.90;;;;;;4962612;28;20054;-90
2022/05/24 12:02:27;;;;;;;5.57;1.13;;;14.20;99.90;;;;;;4983387;28;20495;-84
2022/05/24 12:08:00;;;;;;;6.68;1.42;;;15.20;99.90;;;;;;4956322;28;20514;-85
2022/05/24 12:10:40;;;;;;;5.22;1.33;;;15.60;99.90;;;;;;4940815;28;20543;-83
2022/05/24 12:13:06;;;;;;;9.98;1.77;;;15.60;99.90;;;;;;4974352;28;20550;-83
2022/05/24 12:15:33;;;;;;;4.97;1.67;;;15.60;99.90;;;;;;4974164;28;20129;-85
2022/05/24 12:17:59;;;;;;;5.93;1.30;;;15.60;99.90;;;;;;4959696;28;20395;-85
2022/05/24 12:20:35;;;;;;;4.75;1.30;;;15.90;99.90;;;;;;4978863;28;20141;-88
2022/05/24 12:23:04;;;;;;;3.40;0.80;;;16.40;99.90;;;;;;4962474;28;20055;-83
2022/05/24 12:25:58;;;;;;;3.35;0.80;;;16.50;99.90;;;;;;4977346;28;20051;-86
2022/05/24 12:28:40;;;;;;;5.00;1.42;;;16.60;99.90;;;;;;4977108;28;20123;-84
2022/05/24 12:31:22;;;;;;;3.60;1.00;;;17.00;99.90;;;;;;4960760;28;20431;-88
2022/05/24 12:34:00;;;;;;;5.47;1.40;;;17.10;99.90;;;;;;4977281;28;20081;-84
2022/05/24 12:36:41;;;;;;;6.50;1.80;;;16.80;99.90;;;;;;4961485;28;20058;-88
2022/05/24 12:39:07;;;;;;;5.68;1.35;;;16.60;99.90;;;;;;4961488;28;20066;-90
2022/05/24 12:41:36;;;;;;;6.68;1.50;;;16.30;99.90;;;;;;4962989;28;20125;-85
2022/05/24 12:44:18;;;;;;;6.78;1.20;;;16.50;99.90;;;;;;4962908;28;20483;-84
2022/05/24 12:46:53;;;;;;;7.20;1.25;;;17.00;99.90;;;;;;4978518;28;20046;-86
2022/05/24 12:49:22;;;;;;;7.63;1.15;;;16.90;99.90;;;;;;4958334;28;20047;-87
2022/05/24 12:52:00;;;;;;;4.90;0.95;;;17.10;99.90;;;;;;4957070;28;20478;-86
2022/05/24 12:54:26;;;;;;;4.22;0.80;;;17.00;99.90;;;;;;4979177;28;20050;-90
2022/05/24 12:57:03;;;;;;;5.88;1.15;;;17.30;99.90;;;;;;4967952;28;20082;-84
2022/05/24 12:59:34;;;;;;;7.50;0.82;;;17.80;99.90;;;;;;4947865;28;20054;-84
2022/05/24 13:02:15;;;;;;;5.45;1.25;;;18.10;99.90;;;;;;4956564;28;20061;-89
2022/05/24 13:04:42;;;;;;;2.65;1.00;;;18.00;99.90;;;;;;4973721;28;20061;-86
2022/05/24 13:07:38;;;;;;;4.57;1.30;;;18.00;99.90;;;;;;4974482;28;20424;-86
2022/05/24 13:10:18;;;;;;;3.47;0.75;;;18.00;99.90;;;;;;4957350;28;20085;-83
2022/05/24 13:12:55;;;;;;;5.50;0.82;;;18.20;99.90;;;;;;4977743;28;20055;-84
2022/05/24 13:15:44;;;;;;;4.18;1.27;;;18.30;99.90;;;;;;4955808;28;20479;-85
2022/05/24 13:18:14;;;;;;;3.13;0.60;;;18.40;99.90;;;;;;4974190;28;20055;-86
2022/05/24 13:20:46;;;;;;;4.13;0.77;;;18.40;99.90;;;;;;4979171;28;20046;-85
2022/05/24 13:23:15;;;;;;;4.60;1.20;;;18.70;99.90;;;;;;4961607;28;20057;-85
2022/05/24 13:25:57;;;;;;;5.13;1.38;;;18.80;99.90;;;;;;4976176;28;20051;-86
2022/05/24 13:28:42;;;;;;;3.58;0.70;;;18.50;99.90;;;;;;4961762;28;20399;-93
2022/05/24 13:34:28;;;;;;;7.05;1.00;;;19.00;99.90;;;;;;4965705;28;20043;-96
2022/05/24 13:36:56;;;;;;;6.80;2.00;;;19.70;99.90;;;;;;4964985;28;20050;-88
2022/05/24 13:39:43;;;;;;;7.47;0.90;;;19.80;99.90;;;;;;4946294;28;20043;-93
2022/05/24 13:42:17;;;;;;;4.45;0.68;;;19.30;98.80;;;;;;4961611;28;20058;-87
2022/05/24 13:45:06;;;;;;;4.68;1.10;;;19.40;99.90;;;;;;4966339;28;20084;-87